Notre-Dame-Du-Nord, Canada
Current Conditions -  °F | °C
As of 11:00 AM on Sunday 23 Nov 2014 (Local Time) from CYXR Reporting Station
Overcast Overcast  
Wind Chill: 30°   Ceiling: 1000
Heat Index: 36°   Visibility: 9mi
Dew Point: 34°   Wind: 7mph
Humidity: 93%   Direction: 140°SE
Pressure: 29.82"   Gusts: NA
Location:  47.6°N, 79.65°W
Report Text: CYXR 231600Z AUTO 14006KT 9SM BKN010 OVC020 02/01 A2982 RMK PRESFR SLP110
Loading
Personal Weather Stations






























Interactive Weather Map New forecast layout! Learn more

10-Day Weather Forecast

Advertisements
Track Severe Weather on mobile